sensor_id;sensor_type;location;lat;lon;timestamp;P1;durP1;ratioP1;P2;durP2;ratioP2
57057;SDS011;55017;52.848;6.748;2023-07-09T00:01:51;101.40;;;98.32;;
57057;SDS011;55017;52.848;6.748;2023-07-09T00:04:17;104.65;;;101.47;;
57057;SDS011;55017;52.848;6.748;2023-07-09T00:06:43;99.88;;;96.88;;
57057;SDS011;55017;52.848;6.748;2023-07-09T00:09:28;102.60;;;99.50;;
57057;SDS011;55017;52.848;6.748;2023-07-09T00:11:54;95.47;;;92.57;;
57057;SDS011;55017;52.848;6.748;2023-07-09T00:14:20;100.65;;;97.65;;
57057;SDS011;55017;52.848;6.748;2023-07-09T00:16:45;98.22;;;95.22;;
57057;SDS011;55017;52.848;6.748;2023-07-09T00:19:15;98.03;;;95.03;;
57057;SDS011;55017;52.848;6.748;2023-07-09T00:21:43;106.68;;;103.47;;
57057;SDS011;55017;52.848;6.748;2023-07-09T00:24:10;95.68;;;92.78;;
57057;SDS011;55017;52.848;6.748;2023-07-09T00:26:37;95.60;;;92.70;;
57057;SDS011;55017;52.848;6.748;2023-07-09T00:31:37;93.70;;;90.82;;
57057;SDS011;55017;52.848;6.748;2023-07-09T00:34:07;99.70;;;96.70;;
57057;SDS011;55017;52.848;6.748;2023-07-09T00:36:33;100.97;;;97.87;;
57057;SDS011;55017;52.848;6.748;2023-07-09T00:38:59;97.88;;;94.88;;
57057;SDS011;55017;52.848;6.748;2023-07-09T00:41:29;95.72;;;92.82;;
57057;SDS011;55017;52.848;6.748;2023-07-09T00:49:24;96.53;;;93.57;;
57057;SDS011;55017;52.848;6.748;2023-07-09T00:51:58;95.50;;;92.60;;
57057;SDS011;55017;52.848;6.748;2023-07-09T00:54:32;93.57;;;90.72;;
57057;SDS011;55017;52.848;6.748;2023-07-09T00:57:05;103.68;;;100.57;;
57057;SDS011;55017;52.848;6.748;2023-07-09T00:59:37;99.70;;;96.70;;
57057;SDS011;55017;52.848;6.748;2023-07-09T01:02:04;98.95;;;95.95;;
57057;SDS011;55017;52.848;6.748;2023-07-09T01:04:32;97.07;;;94.13;;
57057;SDS011;55017;52.848;6.748;2023-07-09T01:06:58;99.05;;;96.05;;
57057;SDS011;55017;52.848;6.748;2023-07-09T01:09:24;95.80;;;92.90;;
57057;SDS011;55017;52.848;6.748;2023-07-09T01:11:50;95.72;;;92.82;;
57057;SDS011;55017;52.848;6.748;2023-07-09T01:14:22;98.85;;;95.85;;
57057;SDS011;55017;52.848;6.748;2023-07-09T01:17:00;105.13;;;101.95;;
57057;SDS011;55017;52.848;6.748;2023-07-09T01:19:30;96.53;;;93.63;;
57057;SDS011;55017;52.848;6.748;2023-07-09T01:24:49;96.75;;;93.82;;
57057;SDS011;55017;52.848;6.748;2023-07-09T01:27:37;96.22;;;93.32;;
57057;SDS011;55017;52.848;6.748;2023-07-09T01:30:11;100.50;;;97.45;;
57057;SDS011;55017;52.848;6.748;2023-07-09T01:35:35;102.40;;;99.30;;
57057;SDS011;55017;52.848;6.748;2023-07-09T01:38:02;104.90;;;101.70;;
57057;SDS011;55017;52.848;6.748;2023-07-09T01:40:31;104.47;;;101.28;;
57057;SDS011;55017;52.848;6.748;2023-07-09T01:42:57;95.57;;;92.68;;
57057;SDS011;55017;52.848;6.748;2023-07-09T01:47:49;96.68;;;93.72;;
57057;SDS011;55017;52.848;6.748;2023-07-09T01:50:15;95.90;;;93.00;;
57057;SDS011;55017;52.848;6.748;2023-07-09T01:52:42;96.30;;;93.38;;
57057;SDS011;55017;52.848;6.748;2023-07-09T01:55:09;94.90;;;92.00;;
57057;SDS011;55017;52.848;6.748;2023-07-09T01:57:37;99.63;;;96.63;;
57057;SDS011;55017;52.848;6.748;2023-07-09T02:00:06;98.25;;;95.25;;
57057;SDS011;55017;52.848;6.748;2023-07-09T02:02:36;97.15;;;94.18;;
57057;SDS011;55017;52.848;6.748;2023-07-09T02:05:09;95.93;;;93.03;;
57057;SDS011;55017;52.848;6.748;2023-07-09T02:07:36;107.22;;;104.03;;
57057;SDS011;55017;52.848;6.748;2023-07-09T02:10:02;107.93;;;104.68;;
57057;SDS011;55017;52.848;6.748;2023-07-09T02:12:28;100.78;;;97.72;;
57057;SDS011;55017;52.848;6.748;2023-07-09T02:14:53;106.85;;;103.65;;
57057;SDS011;55017;52.848;6.748;2023-07-09T02:17:19;100.38;;;97.38;;
57057;SDS011;55017;52.848;6.748;2023-07-09T02:19:44;100.73;;;97.73;;
57057;SDS011;55017;52.848;6.748;2023-07-09T02:22:10;101.70;;;98.63;;
57057;SDS011;55017;52.848;6.748;2023-07-09T02:24:36;99.15;;;96.15;;
57057;SDS011;55017;52.848;6.748;2023-07-09T02:27:04;102.68;;;99.57;;
57057;SDS011;55017;52.848;6.748;2023-07-09T02:29:31;104.53;;;101.38;;
57057;SDS011;55017;52.848;6.748;2023-07-09T02:31:57;101.30;;;98.20;;
57057;SDS011;55017;52.848;6.748;2023-07-09T02:34:24;99.93;;;96.93;;
57057;SDS011;55017;52.848;6.748;2023-07-09T02:36:51;96.75;;;93.85;;
57057;SDS011;55017;52.848;6.748;2023-07-09T02:39:17;101.72;;;98.63;;
57057;SDS011;55017;52.848;6.748;2023-07-09T02:41:44;102.15;;;99.05;;
57057;SDS011;55017;52.848;6.748;2023-07-09T02:44:10;98.95;;;95.95;;
57057;SDS011;55017;52.848;6.748;2023-07-09T02:46:35;99.57;;;96.57;;
57057;SDS011;55017;52.848;6.748;2023-07-09T02:49:03;98.22;;;95.22;;
57057;SDS011;55017;52.848;6.748;2023-07-09T02:51:30;95.97;;;93.07;;
57057;SDS011;55017;52.848;6.748;2023-07-09T02:53:56;97.35;;;94.35;;
57057;SDS011;55017;52.848;6.748;2023-07-09T02:56:23;98.13;;;95.13;;
57057;SDS011;55017;52.848;6.748;2023-07-09T02:58:52;94.93;;;92.03;;
57057;SDS011;55017;52.848;6.748;2023-07-09T03:01:17;97.57;;;94.57;;
57057;SDS011;55017;52.848;6.748;2023-07-09T03:03:46;96.72;;;93.82;;
57057;SDS011;55017;52.848;6.748;2023-07-09T03:06:12;98.88;;;95.88;;
57057;SDS011;55017;52.848;6.748;2023-07-09T03:08:38;99.57;;;96.57;;
57057;SDS011;55017;52.848;6.748;2023-07-09T03:11:10;97.50;;;94.50;;
57057;SDS011;55017;52.848;6.748;2023-07-09T03:13:36;102.40;;;99.30;;
57057;SDS011;55017;52.848;6.748;2023-07-09T03:16:02;104.70;;;101.57;;
57057;SDS011;55017;52.848;6.748;2023-07-09T03:18:28;98.50;;;95.50;;
57057;SDS011;55017;52.848;6.748;2023-07-09T03:20:53;99.63;;;96.63;;
57057;SDS011;55017;52.848;6.748;2023-07-09T03:23:19;99.10;;;96.10;;
57057;SDS011;55017;52.848;6.748;2023-07-09T03:25:45;103.35;;;100.25;;
57057;SDS011;55017;52.848;6.748;2023-07-09T03:30:40;98.80;;;95.80;;
57057;SDS011;55017;52.848;6.748;2023-07-09T03:33:06;102.22;;;99.13;;
57057;SDS011;55017;52.848;6.748;2023-07-09T03:35:32;100.30;;;97.25;;
57057;SDS011;55017;52.848;6.748;2023-07-09T03:37:59;96.65;;;93.72;;
57057;SDS011;55017;52.848;6.748;2023-07-09T03:40:25;98.40;;;95.40;;
57057;SDS011;55017;52.848;6.748;2023-07-09T03:42:51;100.25;;;97.25;;
57057;SDS011;55017;52.848;6.748;2023-07-09T03:45:16;98.70;;;95.72;;
57057;SDS011;55017;52.848;6.748;2023-07-09T03:47:42;104.40;;;101.27;;
57057;SDS011;55017;52.848;6.748;2023-07-09T03:50:08;103.93;;;100.83;;
57057;SDS011;55017;52.848;6.748;2023-07-09T03:52:34;101.18;;;98.07;;
57057;SDS011;55017;52.848;6.748;2023-07-09T03:57:28;99.32;;;96.32;;
57057;SDS011;55017;52.848;6.748;2023-07-09T03:59:58;98.70;;;95.70;;
57057;SDS011;55017;52.848;6.748;2023-07-09T04:02:24;103.97;;;100.82;;
57057;SDS011;55017;52.848;6.748;2023-07-09T04:04:49;104.90;;;101.70;;
57057;SDS011;55017;52.848;6.748;2023-07-09T04:07:15;97.38;;;94.40;;
57057;SDS011;55017;52.848;6.748;2023-07-09T04:09:41;98.22;;;95.22;;
57057;SDS011;55017;52.848;6.748;2023-07-09T04:12:07;102.07;;;98.97;;
57057;SDS011;55017;52.848;6.748;2023-07-09T04:14:34;99.38;;;96.38;;
57057;SDS011;55017;52.848;6.748;2023-07-09T04:16:59;98.00;;;95.00;;
57057;SDS011;55017;52.848;6.748;2023-07-09T04:19:25;98.80;;;95.80;;
57057;SDS011;55017;52.848;6.748;2023-07-09T04:21:51;110.30;;;107.00;;
57057;SDS011;55017;52.848;6.748;2023-07-09T04:24:17;102.50;;;99.40;;
57057;SDS011;55017;52.848;6.748;2023-07-09T04:26:43;96.57;;;93.68;;
57057;SDS011;55017;52.848;6.748;2023-07-09T04:29:09;106.85;;;103.65;;
57057;SDS011;55017;52.848;6.748;2023-07-09T04:31:35;109.13;;;105.82;;
57057;SDS011;55017;52.848;6.748;2023-07-09T04:34:01;108.53;;;105.22;;
57057;SDS011;55017;52.848;6.748;2023-07-09T04:36:26;105.95;;;102.75;;
57057;SDS011;55017;52.848;6.748;2023-07-09T04:38:52;101.60;;;98.50;;
57057;SDS011;55017;52.848;6.748;2023-07-09T04:41:18;100.35;;;97.32;;
57057;SDS011;55017;52.848;6.748;2023-07-09T04:43:43;101.50;;;98.40;;
57057;SDS011;55017;52.848;6.748;2023-07-09T04:46:09;102.10;;;99.00;;
57057;SDS011;55017;52.848;6.748;2023-07-09T04:48:35;100.30;;;97.28;;
57057;SDS011;55017;52.848;6.748;2023-07-09T04:51:00;102.70;;;99.60;;
57057;SDS011;55017;52.848;6.748;2023-07-09T04:53:26;100.63;;;97.55;;
57057;SDS011;55017;52.848;6.748;2023-07-09T04:55:52;99.57;;;96.57;;
57057;SDS011;55017;52.848;6.748;2023-07-09T04:58:18;104.72;;;101.53;;
57057;SDS011;55017;52.848;6.748;2023-07-09T05:00:44;99.80;;;96.80;;
57057;SDS011;55017;52.848;6.748;2023-07-09T05:03:10;107.28;;;104.07;;
57057;SDS011;55017;52.848;6.748;2023-07-09T05:05:41;99.30;;;96.30;;
57057;SDS011;55017;52.848;6.748;2023-07-09T05:08:08;101.88;;;98.78;;
57057;SDS011;55017;52.848;6.748;2023-07-09T05:10:34;105.10;;;101.90;;
57057;SDS011;55017;52.848;6.748;2023-07-09T05:13:05;99.90;;;96.90;;
57057;SDS011;55017;52.848;6.748;2023-07-09T05:15:30;102.38;;;99.28;;
57057;SDS011;55017;52.848;6.748;2023-07-09T05:17:56;98.30;;;95.30;;
57057;SDS011;55017;52.848;6.748;2023-07-09T05:20:21;100.00;;;97.00;;
57057;SDS011;55017;52.848;6.748;2023-07-09T05:22:47;99.15;;;96.15;;
57057;SDS011;55017;52.848;6.748;2023-07-09T05:25:13;102.50;;;99.40;;
57057;SDS011;55017;52.848;6.748;2023-07-09T05:27:38;102.82;;;99.72;;
57057;SDS011;55017;52.848;6.748;2023-07-09T05:30:04;100.30;;;97.25;;
57057;SDS011;55017;52.848;6.748;2023-07-09T05:32:31;100.30;;;97.28;;
57057;SDS011;55017;52.848;6.748;2023-07-09T05:37:22;100.88;;;97.78;;
57057;SDS011;55017;52.848;6.748;2023-07-09T05:42:13;97.63;;;94.63;;
57057;SDS011;55017;52.848;6.748;2023-07-09T05:44:38;102.28;;;99.18;;
57057;SDS011;55017;52.848;6.748;2023-07-09T05:47:04;99.38;;;96.38;;
57057;SDS011;55017;52.848;6.748;2023-07-09T05:51:55;96.25;;;93.35;;
57057;SDS011;55017;52.848;6.748;2023-07-09T05:54:21;98.68;;;95.68;;
57057;SDS011;55017;52.848;6.748;2023-07-09T05:56:46;99.03;;;96.03;;
57057;SDS011;55017;52.848;6.748;2023-07-09T05:59:12;97.75;;;94.75;;
57057;SDS011;55017;52.848;6.748;2023-07-09T06:04:03;99.47;;;96.47;;
57057;SDS011;55017;52.848;6.748;2023-07-09T06:06:29;99.43;;;96.43;;
57057;SDS011;55017;52.848;6.748;2023-07-09T06:08:56;100.95;;;97.90;;
57057;SDS011;55017;52.848;6.748;2023-07-09T06:11:21;101.32;;;98.22;;
57057;SDS011;55017;52.848;6.748;2023-07-09T06:13:48;97.55;;;94.55;;
57057;SDS011;55017;52.848;6.748;2023-07-09T06:16:14;102.95;;;99.85;;
57057;SDS011;55017;52.848;6.748;2023-07-09T06:18:39;105.40;;;102.20;;
57057;SDS011;55017;52.848;6.748;2023-07-09T06:21:05;102.78;;;99.68;;
57057;SDS011;55017;52.848;6.748;2023-07-09T06:25:58;103.53;;;100.43;;
57057;SDS011;55017;52.848;6.748;2023-07-09T06:28:24;102.20;;;99.10;;
57057;SDS011;55017;52.848;6.748;2023-07-09T06:30:53;106.78;;;103.57;;
57057;SDS011;55017;52.848;6.748;2023-07-09T06:33:19;102.80;;;99.70;;
57057;SDS011;55017;52.848;6.748;2023-07-09T06:35:46;105.45;;;102.28;;
57057;SDS011;55017;52.848;6.748;2023-07-09T06:38:13;108.03;;;104.75;;
57057;SDS011;55017;52.848;6.748;2023-07-09T06:40:38;107.40;;;104.20;;
57057;SDS011;55017;52.848;6.748;2023-07-09T06:43:04;103.03;;;99.93;;
57057;SDS011;55017;52.848;6.748;2023-07-09T06:45:29;108.90;;;105.60;;
57057;SDS011;55017;52.848;6.748;2023-07-09T06:47:57;103.85;;;100.72;;
57057;SDS011;55017;52.848;6.748;2023-07-09T06:50:22;99.60;;;96.60;;
57057;SDS011;55017;52.848;6.748;2023-07-09T06:52:48;94.55;;;91.65;;
57057;SDS011;55017;52.848;6.748;2023-07-09T06:55:13;100.45;;;97.45;;
57057;SDS011;55017;52.848;6.748;2023-07-09T06:57:39;102.97;;;99.88;;
57057;SDS011;55017;52.848;6.748;2023-07-09T07:00:04;93.90;;;91.10;;
57057;SDS011;55017;52.848;6.748;2023-07-09T07:04:57;105.95;;;102.75;;
57057;SDS011;55017;52.848;6.748;2023-07-09T07:07:23;104.80;;;101.65;;
57057;SDS011;55017;52.848;6.748;2023-07-09T07:09:48;104.72;;;101.55;;
57057;SDS011;55017;52.848;6.748;2023-07-09T07:12:24;103.30;;;100.20;;
57057;SDS011;55017;52.848;6.748;2023-07-09T07:14:51;102.95;;;99.85;;
57057;SDS011;55017;52.848;6.748;2023-07-09T07:17:17;105.28;;;102.07;;
57057;SDS011;55017;52.848;6.748;2023-07-09T07:19:43;107.93;;;104.72;;
57057;SDS011;55017;52.848;6.748;2023-07-09T07:22:08;105.43;;;102.22;;
57057;SDS011;55017;52.848;6.748;2023-07-09T07:24:34;106.30;;;103.10;;
57057;SDS011;55017;52.848;6.748;2023-07-09T07:26:59;106.47;;;103.28;;
57057;SDS011;55017;52.848;6.748;2023-07-09T07:29:25;107.20;;;104.00;;
57057;SDS011;55017;52.848;6.748;2023-07-09T07:31:51;101.97;;;98.88;;
57057;SDS011;55017;52.848;6.748;2023-07-09T07:34:16;105.43;;;102.22;;
57057;SDS011;55017;52.848;6.748;2023-07-09T07:36:42;102.38;;;99.28;;
57057;SDS011;55017;52.848;6.748;2023-07-09T07:41:33;105.85;;;102.65;;
57057;SDS011;55017;52.848;6.748;2023-07-09T07:43:58;94.10;;;91.30;;
57057;SDS011;55017;52.848;6.748;2023-07-09T07:46:24;89.23;;;86.53;;
57057;SDS011;55017;52.848;6.748;2023-07-09T07:48:50;95.53;;;92.63;;
57057;SDS011;55017;52.848;6.748;2023-07-09T07:51:15;98.93;;;95.93;;
57057;SDS011;55017;52.848;6.748;2023-07-09T07:56:07;102.45;;;99.35;;
57057;SDS011;55017;52.848;6.748;2023-07-09T07:58:33;101.85;;;98.75;;
57057;SDS011;55017;52.848;6.748;2023-07-09T08:05:50;105.13;;;101.93;;
57057;SDS011;55017;52.848;6.748;2023-07-09T08:08:16;101.63;;;98.53;;
57057;SDS011;55017;52.848;6.748;2023-07-09T08:10:42;91.57;;;88.78;;
57057;SDS011;55017;52.848;6.748;2023-07-09T08:13:08;86.57;;;83.97;;
57057;SDS011;55017;52.848;6.748;2023-07-09T08:15:34;91.72;;;88.93;;
57057;SDS011;55017;52.848;6.748;2023-07-09T08:20:25;97.55;;;94.65;;
57057;SDS011;55017;52.848;6.748;2023-07-09T08:25:16;100.22;;;97.22;;
57057;SDS011;55017;52.848;6.748;2023-07-09T08:27:42;102.38;;;99.28;;
57057;SDS011;55017;52.848;6.748;2023-07-09T08:30:08;99.07;;;96.07;;
57057;SDS011;55017;52.848;6.748;2023-07-09T08:32:34;99.40;;;96.40;;
57057;SDS011;55017;52.848;6.748;2023-07-09T08:34:59;88.73;;;86.03;;
57057;SDS011;55017;52.848;6.748;2023-07-09T08:37:25;91.88;;;89.07;;
57057;SDS011;55017;52.848;6.748;2023-07-09T08:39:51;95.00;;;92.10;;
57057;SDS011;55017;52.848;6.748;2023-07-09T08:47:55;97.13;;;94.22;;
57057;SDS011;55017;52.848;6.748;2023-07-09T08:50:32;98.65;;;95.65;;
57057;SDS011;55017;52.848;6.748;2023-07-09T08:53:03;87.25;;;84.55;;
57057;SDS011;55017;52.848;6.748;2023-07-09T08:55:29;91.90;;;89.10;;
57057;SDS011;55017;52.848;6.748;2023-07-09T08:58:05;94.07;;;91.28;;
57057;SDS011;55017;52.848;6.748;2023-07-09T09:00:55;95.75;;;92.85;;
57057;SDS011;55017;52.848;6.748;2023-07-09T09:06:13;97.63;;;94.72;;
57057;SDS011;55017;52.848;6.748;2023-07-09T09:16:30;97.72;;;94.80;;
57057;SDS011;55017;52.848;6.748;2023-07-09T09:18:58;99.28;;;96.28;;
57057;SDS011;55017;52.848;6.748;2023-07-09T09:21:31;85.70;;;83.10;;
57057;SDS011;55017;52.848;6.748;2023-07-09T09:24:01;92.00;;;89.20;;
57057;SDS011;55017;52.848;6.748;2023-07-09T09:26:50;93.65;;;90.85;;
57057;SDS011;55017;52.848;6.748;2023-07-09T09:29:20;84.22;;;81.63;;
57057;SDS011;55017;52.848;6.748;2023-07-09T09:31:50;90.07;;;87.38;;
57057;SDS011;55017;52.848;6.748;2023-07-09T09:36:47;93.43;;;90.63;;
57057;SDS011;55017;52.848;6.748;2023-07-09T09:39:13;94.10;;;91.28;;
57057;SDS011;55017;52.848;6.748;2023-07-09T09:41:38;84.03;;;81.43;;
57057;SDS011;55017;52.848;6.748;2023-07-09T09:44:05;89.25;;;86.55;;
57057;SDS011;55017;52.848;6.748;2023-07-09T09:46:32;82.40;;;79.90;;
57057;SDS011;55017;52.848;6.748;2023-07-09T09:49:01;87.72;;;85.03;;
57057;SDS011;55017;52.848;6.748;2023-07-09T09:51:33;80.30;;;77.80;;
57057;SDS011;55017;52.848;6.748;2023-07-09T09:53:59;84.90;;;82.30;;
57057;SDS011;55017;52.848;6.748;2023-07-09T09:56:28;79.15;;;76.75;;
57057;SDS011;55017;52.848;6.748;2023-07-09T09:58:56;85.60;;;83.00;;
57057;SDS011;55017;52.848;6.748;2023-07-09T10:01:29;89.57;;;86.88;;
57057;SDS011;55017;52.848;6.748;2023-07-09T10:03:57;90.30;;;87.60;;
57057;SDS011;55017;52.848;6.748;2023-07-09T10:16:51;86.63;;;84.03;;
57057;SDS011;55017;52.848;6.748;2023-07-09T10:19:23;90.90;;;88.10;;
57057;SDS011;55017;52.848;6.748;2023-07-09T10:25:16;78.85;;;76.45;;
57057;SDS011;55017;52.848;6.748;2023-07-09T10:27:58;87.43;;;84.72;;
57057;SDS011;55017;52.848;6.748;2023-07-09T10:33:09;84.47;;;81.88;;
57057;SDS011;55017;52.848;6.748;2023-07-09T10:38:22;85.40;;;82.80;;
57057;SDS011;55017;52.848;6.748;2023-07-09T10:41:02;76.13;;;73.72;;
57057;SDS011;55017;52.848;6.748;2023-07-09T10:46:25;82.88;;;80.38;;
57057;SDS011;55017;52.848;6.748;2023-07-09T10:51:38;86.88;;;84.22;;
57057;SDS011;55017;52.848;6.748;2023-07-09T10:57:02;85.07;;;82.47;;
57057;SDS011;55017;52.848;6.748;2023-07-09T10:59:42;85.95;;;83.35;;
57057;SDS011;55017;52.848;6.748;2023-07-09T11:02:25;77.25;;;74.85;;
57057;SDS011;55017;52.848;6.748;2023-07-09T11:04:59;71.97;;;69.68;;
57057;SDS011;55017;52.848;6.748;2023-07-09T11:07:30;79.82;;;77.32;;
57057;SDS011;55017;52.848;6.748;2023-07-09T11:09:57;82.70;;;80.20;;
57057;SDS011;55017;52.848;6.748;2023-07-09T11:15:04;85.00;;;82.40;;
57057;SDS011;55017;52.848;6.748;2023-07-09T11:17:43;86.63;;;84.03;;
57057;SDS011;55017;52.848;6.748;2023-07-09T11:22:51;88.70;;;86.00;;
57057;SDS011;55017;52.848;6.748;2023-07-09T11:28:06;84.60;;;82.00;;
57057;SDS011;55017;52.848;6.748;2023-07-09T11:30:32;75.60;;;73.20;;
57057;SDS011;55017;52.848;6.748;2023-07-09T11:33:19;71.30;;;69.10;;
57057;SDS011;55017;52.848;6.748;2023-07-09T11:35:53;78.03;;;75.63;;
57057;SDS011;55017;52.848;6.748;2023-07-09T11:38:36;83.50;;;80.90;;
57057;SDS011;55017;52.848;6.748;2023-07-09T11:43:49;87.22;;;84.53;;
57057;SDS011;55017;52.848;6.748;2023-07-09T11:48:46;88.93;;;86.22;;
57057;SDS011;55017;52.848;6.748;2023-07-09T11:51:15;88.00;;;85.30;;
57057;SDS011;55017;52.848;6.748;2023-07-09T11:53:52;76.45;;;74.05;;
57057;SDS011;55017;52.848;6.748;2023-07-09T11:56:22;82.88;;;80.38;;
57057;SDS011;55017;52.848;6.748;2023-07-09T11:58:50;83.10;;;80.60;;
57057;SDS011;55017;52.848;6.748;2023-07-09T12:01:19;84.68;;;82.07;;
57057;SDS011;55017;52.848;6.748;2023-07-09T12:03:55;85.38;;;82.78;;
57057;SDS011;55017;52.848;6.748;2023-07-09T12:06:28;73.63;;;71.32;;
57057;SDS011;55017;52.848;6.748;2023-07-09T12:08:56;79.30;;;76.90;;
57057;SDS011;55017;52.848;6.748;2023-07-09T12:11:24;72.82;;;70.53;;
57057;SDS011;55017;52.848;6.748;2023-07-09T12:13:51;78.90;;;76.50;;
57057;SDS011;55017;52.848;6.748;2023-07-09T12:16:21;83.60;;;81.00;;
57057;SDS011;55017;52.848;6.748;2023-07-09T12:19:17;84.50;;;81.90;;
57057;SDS011;55017;52.848;6.748;2023-07-09T12:21:48;82.25;;;79.75;;
57057;SDS011;55017;52.848;6.748;2023-07-09T12:24:18;74.65;;;72.35;;
57057;SDS011;55017;52.848;6.748;2023-07-09T12:26:47;79.22;;;76.82;;
57057;SDS011;55017;52.848;6.748;2023-07-09T12:29:14;81.70;;;79.20;;
57057;SDS011;55017;52.848;6.748;2023-07-09T12:31:40;84.45;;;81.85;;
57057;SDS011;55017;52.848;6.748;2023-07-09T12:34:05;85.47;;;82.88;;
57057;SDS011;55017;52.848;6.748;2023-07-09T12:43:59;88.18;;;85.47;;
57057;SDS011;55017;52.848;6.748;2023-07-09T12:46:25;87.63;;;84.93;;
57057;SDS011;55017;52.848;6.748;2023-07-09T12:48:52;86.75;;;84.15;;
57057;SDS011;55017;52.848;6.748;2023-07-09T12:51:21;85.88;;;83.28;;
57057;SDS011;55017;52.848;6.748;2023-07-09T12:53:59;85.97;;;83.38;;
57057;SDS011;55017;52.848;6.748;2023-07-09T12:56:26;74.78;;;72.47;;
57057;SDS011;55017;52.848;6.748;2023-07-09T13:01:21;84.43;;;81.82;;
57057;SDS011;55017;52.848;6.748;2023-07-09T13:03:54;82.55;;;80.05;;
57057;SDS011;55017;52.848;6.748;2023-07-09T13:06:25;72.57;;;70.28;;
57057;SDS011;55017;52.848;6.748;2023-07-09T13:09:00;79.72;;;77.28;;
57057;SDS011;55017;52.848;6.748;2023-07-09T13:11:31;81.28;;;78.78;;
57057;SDS011;55017;52.848;6.748;2023-07-09T13:14:01;71.80;;;69.55;;
57057;SDS011;55017;52.848;6.748;2023-07-09T13:16:28;68.03;;;65.82;;
57057;SDS011;55017;52.848;6.748;2023-07-09T13:18:54;76.57;;;74.18;;
57057;SDS011;55017;52.848;6.748;2023-07-09T13:21:20;80.68;;;78.18;;
57057;SDS011;55017;52.848;6.748;2023-07-09T13:23:46;82.38;;;79.88;;
57057;SDS011;55017;52.848;6.748;2023-07-09T13:26:13;83.65;;;81.05;;
57057;SDS011;55017;52.848;6.748;2023-07-09T13:28:39;81.72;;;79.22;;
57057;SDS011;55017;52.848;6.748;2023-07-09T13:33:39;69.57;;;67.38;;
57057;SDS011;55017;52.848;6.748;2023-07-09T13:40:59;84.72;;;82.13;;
57057;SDS011;55017;52.848;6.748;2023-07-09T13:43:28;76.70;;;74.30;;
57057;SDS011;55017;52.848;6.748;2023-07-09T13:48:21;84.82;;;82.22;;
57057;SDS011;55017;52.848;6.748;2023-07-09T13:50:49;84.05;;;81.45;;
57057;SDS011;55017;52.848;6.748;2023-07-09T13:53:17;84.80;;;82.20;;
57057;SDS011;55017;52.848;6.748;2023-07-09T13:55:45;85.50;;;82.90;;
57057;SDS011;55017;52.848;6.748;2023-07-09T13:58:12;87.78;;;85.07;;
57057;SDS011;55017;52.848;6.748;2023-07-09T14:05:40;88.95;;;86.25;;
57057;SDS011;55017;52.848;6.748;2023-07-09T14:08:07;90.10;;;87.40;;
57057;SDS011;55017;52.848;6.748;2023-07-09T14:10:34;88.20;;;85.50;;
57057;SDS011;55017;52.848;6.748;2023-07-09T14:12:59;88.07;;;85.38;;
57057;SDS011;55017;52.848;6.748;2023-07-09T14:15:27;86.80;;;84.18;;
57057;SDS011;55017;52.848;6.748;2023-07-09T14:17:53;87.78;;;85.07;;
57057;SDS011;55017;52.848;6.748;2023-07-09T14:20:21;88.18;;;85.47;;
57057;SDS011;55017;52.848;6.748;2023-07-09T14:22:48;89.88;;;87.18;;
57057;SDS011;55017;52.848;6.748;2023-07-09T14:25:18;90.47;;;87.78;;
57057;SDS011;55017;52.848;6.748;2023-07-09T14:27:46;89.47;;;86.78;;
57057;SDS011;55017;52.848;6.748;2023-07-09T14:30:18;90.80;;;88.05;;
57057;SDS011;55017;52.848;6.748;2023-07-09T14:32:46;90.78;;;88.00;;
57057;SDS011;55017;52.848;6.748;2023-07-09T14:35:15;80.45;;;77.95;;
57057;SDS011;55017;52.848;6.748;2023-07-09T14:37:43;84.20;;;81.60;;
57057;SDS011;55017;52.848;6.748;2023-07-09T14:40:10;77.25;;;74.85;;
57057;SDS011;55017;52.848;6.748;2023-07-09T14:42:36;85.13;;;82.53;;
57057;SDS011;55017;52.848;6.748;2023-07-09T14:45:04;77.75;;;75.35;;
57057;SDS011;55017;52.848;6.748;2023-07-09T14:49:56;85.82;;;83.22;;
57057;SDS011;55017;52.848;6.748;2023-07-09T14:52:22;77.72;;;75.32;;
57057;SDS011;55017;52.848;6.748;2023-07-09T14:57:17;86.30;;;83.70;;
57057;SDS011;55017;52.848;6.748;2023-07-09T14:59:44;86.20;;;83.60;;
57057;SDS011;55017;52.848;6.748;2023-07-09T15:05:06;86.40;;;83.80;;
57057;SDS011;55017;52.848;6.748;2023-07-09T15:10:08;88.00;;;85.30;;
57057;SDS011;55017;52.848;6.748;2023-07-09T15:12:38;89.43;;;86.72;;
57057;SDS011;55017;52.848;6.748;2023-07-09T15:18:10;89.32;;;86.63;;
57057;SDS011;55017;52.848;6.748;2023-07-09T15:20:37;91.03;;;88.22;;
57057;SDS011;55017;52.848;6.748;2023-07-09T15:23:03;81.32;;;78.82;;
57057;SDS011;55017;52.848;6.748;2023-07-09T15:25:29;86.43;;;83.78;;
57057;SDS011;55017;52.848;6.748;2023-07-09T15:27:58;87.88;;;85.18;;
57057;SDS011;55017;52.848;6.748;2023-07-09T15:30:26;90.07;;;87.38;;
57057;SDS011;55017;52.848;6.748;2023-07-09T15:35:20;94.80;;;91.90;;
57057;SDS011;55017;52.848;6.748;2023-07-09T15:37:46;92.50;;;89.70;;
57057;SDS011;55017;52.848;6.748;2023-07-09T15:40:17;92.65;;;89.85;;
57057;SDS011;55017;52.848;6.748;2023-07-09T15:42:49;92.88;;;90.07;;
57057;SDS011;55017;52.848;6.748;2023-07-09T15:45:17;92.85;;;90.05;;
57057;SDS011;55017;52.848;6.748;2023-07-09T15:47:44;93.88;;;91.07;;
57057;SDS011;55017;52.848;6.748;2023-07-09T15:52:48;95.97;;;93.07;;
57057;SDS011;55017;52.848;6.748;2023-07-09T15:55:24;94.38;;;91.47;;
57057;SDS011;55017;52.848;6.748;2023-07-09T15:57:52;95.13;;;92.22;;
57057;SDS011;55017;52.848;6.748;2023-07-09T16:00:26;96.47;;;93.57;;
57057;SDS011;55017;52.848;6.748;2023-07-09T16:02:53;95.32;;;92.43;;
57057;SDS011;55017;52.848;6.748;2023-07-09T16:05:24;90.07;;;87.38;;
57057;SDS011;55017;52.848;6.748;2023-07-09T16:07:51;92.55;;;89.75;;
57057;SDS011;55017;52.848;6.748;2023-07-09T16:10:19;94.38;;;91.47;;
57057;SDS011;55017;52.848;6.748;2023-07-09T16:12:46;97.00;;;94.10;;
57057;SDS011;55017;52.848;6.748;2023-07-09T16:15:14;94.80;;;91.90;;
57057;SDS011;55017;52.848;6.748;2023-07-09T16:17:41;89.53;;;86.82;;
57057;SDS011;55017;52.848;6.748;2023-07-09T16:20:11;94.40;;;91.53;;
57057;SDS011;55017;52.848;6.748;2023-07-09T16:22:40;95.95;;;93.05;;
57057;SDS011;55017;52.848;6.748;2023-07-09T16:25:15;95.82;;;92.93;;
57057;SDS011;55017;52.848;6.748;2023-07-09T16:27:44;95.93;;;93.03;;
57057;SDS011;55017;52.848;6.748;2023-07-09T16:32:41;97.70;;;94.78;;
57057;SDS011;55017;52.848;6.748;2023-07-09T16:35:10;97.75;;;94.82;;
57057;SDS011;55017;52.848;6.748;2023-07-09T16:37:40;100.00;;;97.00;;
57057;SDS011;55017;52.848;6.748;2023-07-09T16:40:20;98.22;;;95.22;;
57057;SDS011;55017;52.848;6.748;2023-07-09T16:42:47;90.47;;;87.72;;
57057;SDS011;55017;52.848;6.748;2023-07-09T16:45:15;94.95;;;92.05;;
57057;SDS011;55017;52.848;6.748;2023-07-09T16:47:42;96.32;;;93.43;;
57057;SDS011;55017;52.848;6.748;2023-07-09T16:50:19;97.45;;;94.55;;
57057;SDS011;55017;52.848;6.748;2023-07-09T16:52:46;99.20;;;96.20;;
57057;SDS011;55017;52.848;6.748;2023-07-09T16:55:14;100.68;;;97.65;;
57057;SDS011;55017;52.848;6.748;2023-07-09T16:57:44;102.22;;;99.13;;